Time;durP1;ratioP1;P1;durP2;ratioP2;P2;SDS_P1;SDS_P2;PMS_P1;PMS_P2;Temp;Humidity;BMP_temperature;BMP_pressure;BME280_temperature;BME280_humidity;BME280_pressure;Samples;Min_cycle;Max_cycle;Signal;HPM_P1;HPM_P2
2022/06/04 00:00:48;;;;;;;;;;;;;;;10.27;100.00;101499.91;5079413;28;19928;-80
2022/06/04 00:03:22;;;;;;;;;;;;;;;10.20;100.00;101500.13;5081890;28;19955;-81
2022/06/04 00:05:56;;;;;;;;;;;;;;;10.22;100.00;101499.88;5079038;28;19953;-79
2022/06/04 00:08:25;;;;;;;;;;;;;;;10.16;100.00;101495.44;5092923;28;19931;-79
2022/06/04 00:16:40;;;;;;;;;;;;;;;10.07;100.00;101497.81;5053010;28;20393;-79
2022/06/04 00:19:13;;;;;;;;;;;;;;;10.11;100.00;101498.94;5054567;28;19925;-79
2022/06/04 00:21:48;;;;;;;;;;;;;;;9.93;100.00;101497.41;5078011;28;19947;-79
2022/06/04 00:24:21;;;;;;;;;;;;;;;9.83;100.00;101497.28;5080620;28;19986;-79
2022/06/04 00:26:54;;;;;;;;;;;;;;;9.70;100.00;101493.88;5093454;28;19924;-79
2022/06/04 00:29:30;;;;;;;;;;;;;;;9.78;100.00;101492.63;5094266;28;19927;-78
2022/06/04 00:32:04;;;;;;;;;;;;;;;9.85;100.00;101495.13;5078221;28;19940;-79
2022/06/04 00:34:37;;;;;;;;;;;;;;;9.91;100.00;101496.00;5052816;28;19928;-80
2022/06/04 00:37:04;;;;;;;;;;;;;;;9.74;100.00;101499.63;5073621;28;19925;-80
2022/06/04 00:39:38;;;;;;;;;;;;;;;9.66;100.00;101498.16;5053848;28;19962;-80
2022/06/04 00:42:12;;;;;;;;;;;;;;;9.52;100.00;101489.59;5079703;28;19925;-79
2022/06/04 00:45:03;;;;;;;;;;;;;;;9.63;100.00;101493.25;5074358;28;19931;-79
2022/06/04 00:47:38;;;;;;;;;;;;;;;9.74;100.00;101504.25;5073843;28;19928;-80
2022/06/04 00:50:08;;;;;;;;;;;;;;;9.66;100.00;101503.59;5072593;28;19924;-79
2022/06/04 00:52:42;;;;;;;;;;;;;;;9.72;100.00;101504.50;5095159;28;19928;-79
2022/06/04 00:55:15;;;;;;;;;;;;;;;9.74;100.00;101509.69;5073442;28;19924;-80
2022/06/04 00:58:00;;;;;;;;;;;;;;;9.74;100.00;101509.69;5079919;28;19928;-79
2022/06/04 01:00:29;;;;;;;;;;;;;;;9.67;100.00;101510.69;5087155;28;19928;-79
2022/06/04 01:03:10;;;;;;;;;;;;;;;9.53;100.00;101501.28;5078465;28;19939;-79
2022/06/04 01:05:52;;;;;;;;;;;;;;;9.41;100.00;101509.56;5075733;28;19928;-79
2022/06/04 01:08:32;;;;;;;;;;;;;;;9.35;100.00;101505.13;5075566;28;19924;-79
2022/06/04 01:11:05;;;;;;;;;;;;;;;9.49;100.00;101495.53;5070177;28;19925;-79
2022/06/04 01:13:48;;;;;;;;;;;;;;;9.26;100.00;101496.56;5078036;28;20426;-79
2022/06/04 01:16:27;;;;;;;;;;;;;;;9.20;100.00;101497.59;5094738;28;19924;-79
2022/06/04 01:18:57;;;;;;;;;;;;;;;9.27;100.00;101494.69;5091868;28;19931;-79
2022/06/04 01:21:38;;;;;;;;;;;;;;;9.19;100.00;101490.50;5077670;28;19931;-79
2022/06/04 01:24:19;;;;;;;;;;;;;;;9.11;100.00;101493.66;5064090;28;19928;-79
2022/06/04 01:27:01;;;;;;;;;;;;;;;9.28;100.00;101491.72;5091861;28;19924;-79
2022/06/04 01:29:35;;;;;;;;;;;;;;;9.37;100.00;101500.25;5051286;28;19925;-80
2022/06/04 01:32:15;;;;;;;;;;;;;;;9.18;100.00;101494.28;5062197;28;19959;-79
2022/06/04 01:34:51;;;;;;;;;;;;;;;9.32;100.00;101487.44;5085324;28;19924;-81
2022/06/04 01:37:27;;;;;;;;;;;;;;;9.26;100.00;101495.78;5064646;28;19925;-79
2022/06/04 01:42:50;;;;;;;;;;;;;;;9.42;100.00;101486.75;5069290;28;19932;-80
2022/06/04 01:45:21;;;;;;;;;;;;;;;9.35;100.00;101494.28;5075153;28;19928;-79
2022/06/04 01:47:57;;;;;;;;;;;;;;;9.35;100.00;101494.28;5073674;28;19931;-79
2022/06/04 01:50:33;;;;;;;;;;;;;;;9.40;100.00;101490.78;5068153;28;20309;-80
2022/06/04 01:53:08;;;;;;;;;;;;;;;9.16;100.00;101486.41;5083405;28;19924;-79
2022/06/04 01:55:41;;;;;;;;;;;;;;;9.26;100.00;101484.91;5070194;28;19932;-79
2022/06/04 01:58:18;;;;;;;;;;;;;;;9.32;100.00;101486.59;5079670;28;20303;-79
2022/06/04 02:00:50;;;;;;;;;;;;;;;9.30;100.00;101486.84;5067373;28;19932;-79
2022/06/04 02:03:24;;;;;;;;;;;;;;;9.31;100.00;101484.97;5076933;28;19928;-79
2022/06/04 02:05:59;;;;;;;;;;;;;;;9.30;100.00;101477.91;5068775;28;20266;-79
2022/06/04 02:08:34;;;;;;;;;;;;;;;9.34;100.00;101485.28;5078960;28;19924;-79
2022/06/04 02:11:11;;;;;;;;;;;;;;;9.28;100.00;101488.19;5083440;28;19924;-79
2022/06/04 02:13:46;;;;;;;;;;;;;;;9.19;100.00;101487.81;5075785;28;19924;-79
2022/06/04 02:16:19;;;;;;;;;;;;;;;9.16;100.00;101485.59;5073859;28;19925;-81
2022/06/04 02:18:47;;;;;;;;;;;;;;;9.09;100.00;101485.75;5069827;28;19924;-79
2022/06/04 02:21:20;;;;;;;;;;;;;;;9.10;100.00;101484.69;5067251;28;19936;-80
2022/06/04 02:23:53;;;;;;;;;;;;;;;9.19;100.00;101483.19;5072313;28;19940;-80
2022/06/04 02:26:27;;;;;;;;;;;;;;;9.21;100.00;101493.81;5072178;28;19929;-80
2022/06/04 02:28:58;;;;;;;;;;;;;;;9.13;100.00;101486.91;5061939;28;19932;-79
2022/06/04 02:31:32;;;;;;;;;;;;;;;9.10;100.00;101487.41;5074224;28;19925;-79
2022/06/04 02:34:11;;;;;;;;;;;;;;;9.12;100.00;101479.00;5073038;28;20364;-79
2022/06/04 02:36:48;;;;;;;;;;;;;;;9.12;100.00;101476.31;5069982;28;20301;-79
2022/06/04 02:39:25;;;;;;;;;;;;;;;9.00;100.00;101469.09;5071585;28;19955;-79
2022/06/04 02:41:58;;;;;;;;;;;;;;;8.97;100.00;101475.00;5071298;28;20296;-80
2022/06/04 02:44:34;;;;;;;;;;;;;;;8.95;100.00;101476.31;5071136;28;19928;-79
2022/06/04 02:47:10;;;;;;;;;;;;;;;8.93;100.00;101470.31;5076921;28;20301;-79
2022/06/04 02:49:46;;;;;;;;;;;;;;;8.95;100.00;101473.59;5069471;28;19928;-80
2022/06/04 02:52:16;;;;;;;;;;;;;;;9.02;100.00;101475.06;5073006;28;19932;-79
2022/06/04 02:54:51;;;;;;;;;;;;;;;9.02;100.00;101475.06;5075780;28;19928;-79
2022/06/04 02:57:25;;;;;;;;;;;;;;;8.99;100.00;101467.44;5060997;28;19933;-80
2022/06/04 03:00:00;;;;;;;;;;;;;;;9.02;100.00;101472.38;5077788;28;19935;-79
2022/06/04 03:02:34;;;;;;;;;;;;;;;8.96;100.00;101476.09;5071657;28;19929;-78
2022/06/04 03:05:09;;;;;;;;;;;;;;;8.97;100.00;101474.19;5066500;28;19928;-79
2022/06/04 03:07:44;;;;;;;;;;;;;;;8.97;100.00;101477.72;5072359;28;19928;-79
2022/06/04 03:10:20;;;;;;;;;;;;;;;8.85;100.00;101482.41;5077847;28;19974;-79
2022/06/04 03:12:53;;;;;;;;;;;;;;;8.88;100.00;101486.53;5078334;28;20588;-80
2022/06/04 03:15:28;;;;;;;;;;;;;;;8.82;100.00;101488.34;5078023;28;19932;-79
2022/06/04 03:18:00;;;;;;;;;;;;;;;8.73;100.00;101482.53;5066029;28;19924;-79
2022/06/04 03:20:33;;;;;;;;;;;;;;;8.74;100.00;101486.88;5070172;28;19925;-81
2022/06/04 03:23:07;;;;;;;;;;;;;;;8.76;100.00;101498.31;5057040;28;19925;-79
2022/06/04 03:25:40;;;;;;;;;;;;;;;8.87;100.00;101502.00;5066675;28;19932;-79
2022/06/04 03:28:08;;;;;;;;;;;;;;;8.77;100.00;101512.69;5076356;28;19932;-82
2022/06/04 03:30:42;;;;;;;;;;;;;;;8.70;100.00;101506.59;5080678;28;20385;-78
2022/06/04 03:33:15;;;;;;;;;;;;;;;8.72;100.00;101509.91;5068048;28;19924;-79
2022/06/04 03:35:48;;;;;;;;;;;;;;;8.78;100.00;101519.75;5061732;28;19951;-79
2022/06/04 03:38:21;;;;;;;;;;;;;;;8.86;100.00;101524.78;5074209;28;19924;-79
2022/06/04 03:40:54;;;;;;;;;;;;;;;8.96;100.00;101534.97;5076985;28;19925;-79
2022/06/04 03:43:27;;;;;;;;;;;;;;;9.01;100.00;101535.06;5074241;28;19936;-79
2022/06/04 03:46:01;;;;;;;;;;;;;;;9.09;100.00;101536.53;5067567;28;19925;-79
2022/06/04 03:48:34;;;;;;;;;;;;;;;9.07;100.00;101523.19;5073324;28;19931;-79
2022/06/04 03:51:07;;;;;;;;;;;;;;;9.07;100.00;101525.09;5074061;28;20276;-79
2022/06/04 03:53:40;;;;;;;;;;;;;;;8.97;100.00;101529.28;5083766;28;20288;-78
2022/06/04 03:56:13;;;;;;;;;;;;;;;9.00;100.00;101531.53;5073242;28;19928;-79
2022/06/04 03:58:46;;;;;;;;;;;;;;;8.95;100.00;101525.19;5079506;28;19924;-79
2022/06/04 04:01:21;;;;;;;;;;;;;;;8.90;100.00;101534.06;5069651;28;19924;-79
2022/06/04 04:03:55;;;;;;;;;;;;;;;8.92;100.00;101539.25;5067861;28;19925;-79
2022/06/04 04:06:29;;;;;;;;;;;;;;;8.92;100.00;101536.53;5070759;28;19932;-79
2022/06/04 04:09:04;;;;;;;;;;;;;;;8.96;100.00;101543.13;5072744;28;20561;-78
2022/06/04 04:11:32;;;;;;;;;;;;;;;9.05;100.00;101548.97;5076186;28;20272;-79
2022/06/04 04:14:05;;;;;;;;;;;;;;;9.17;100.00;101550.50;5089593;28;19928;-77
2022/06/04 04:16:40;;;;;;;;;;;;;;;9.21;100.00;101548.13;5071264;28;19924;-79
2022/06/04 04:19:12;;;;;;;;;;;;;;;9.36;100.00;101559.22;5078237;28;20280;-78
2022/06/04 04:21:45;;;;;;;;;;;;;;;9.47;100.00;101545.75;5071595;28;19931;-79
2022/06/04 04:24:14;;;;;;;;;;;;;;;9.43;100.00;101555.47;5072812;28;19932;-79
2022/06/04 04:26:41;;;;;;;;;;;;;;;9.50;100.00;101551.53;5075743;28;19932;-81
2022/06/04 04:29:14;;;;;;;;;;;;;;;9.57;100.00;101554.06;5088303;28;19936;-79
2022/06/04 04:31:50;;;;;;;;;;;;;;;9.60;100.00;101552.72;5085451;28;19924;-78
2022/06/04 04:34:23;;;;;;;;;;;;;;;9.63;100.00;101544.88;5085593;28;19924;-79
2022/06/04 04:36:57;;;;;;;;;;;;;;;9.72;100.00;101539.00;5080035;28;19932;-77
2022/06/04 04:39:30;;;;;;;;;;;;;;;9.79;100.00;101535.03;5078949;28;19931;-79
2022/06/04 04:42:03;;;;;;;;;;;;;;;9.90;100.00;101530.53;5073523;28;19928;-80
2022/06/04 04:44:36;;;;;;;;;;;;;;;9.92;100.00;101528.38;5077612;28;19924;-80
2022/06/04 04:47:05;;;;;;;;;;;;;;;10.03;100.00;101526.59;5064734;28;19929;-80
2022/06/04 04:49:38;;;;;;;;;;;;;;;10.00;100.00;101513.53;5068040;28;19933;-80
2022/06/04 04:52:11;;;;;;;;;;;;;;;9.95;100.00;101517.00;5067600;28;19932;-79
2022/06/04 04:54:39;;;;;;;;;;;;;;;10.16;100.00;101525.38;5073565;28;19936;-80
2022/06/04 04:57:12;;;;;;;;;;;;;;;10.05;100.00;101516.28;5081053;28;19924;-79
2022/06/04 04:59:40;;;;;;;;;;;;;;;10.11;100.00;101517.16;5072876;28;20297;-79
2022/06/04 05:02:09;;;;;;;;;;;;;;;10.18;100.00;101520.50;5073446;28;19947;-79
2022/06/04 05:04:42;;;;;;;;;;;;;;;10.11;100.00;101522.59;5077268;28;19931;-79
2022/06/04 05:07:15;;;;;;;;;;;;;;;10.22;100.00;101521.66;5065874;28;19928;-79
2022/06/04 05:09:48;;;;;;;;;;;;;;;10.18;100.00;101523.22;5088664;28;19925;-79
2022/06/04 05:12:20;;;;;;;;;;;;;;;10.19;100.00;101517.53;5073104;28;19938;-79
2022/06/04 05:14:53;;;;;;;;;;;;;;;10.16;100.00;101530.81;5090202;28;19931;-79
2022/06/04 05:17:23;;;;;;;;;;;;;;;10.19;100.00;101520.25;5071549;28;20300;-80
2022/06/04 05:19:50;;;;;;;;;;;;;;;10.22;100.00;101521.66;5078161;28;19924;-79
2022/06/04 05:22:18;;;;;;;;;;;;;;;10.28;100.00;101522.50;5071603;28;19952;-78
2022/06/04 05:24:51;;;;;;;;;;;;;;;10.23;100.00;101528.69;5079609;28;20396;-80
2022/06/04 05:27:24;;;;;;;;;;;;;;;10.27;100.00;101524.41;5078917;28;19932;-79
2022/06/04 05:29:57;;;;;;;;;;;;;;;10.37;100.00;101520.97;5086942;28;20377;-79
2022/06/04 05:32:31;;;;;;;;;;;;;;;10.42;100.00;101525.66;5091864;28;19931;-79
2022/06/04 05:34:59;;;;;;;;;;;;;;;10.54;100.00;101529.03;5073510;28;19925;-79
2022/06/04 05:37:32;;;;;;;;;;;;;;;10.58;100.00;101532.88;5075224;28;19947;-80
2022/06/04 05:40:06;;;;;;;;;;;;;;;10.60;100.00;101525.28;5074490;28;19935;-79
2022/06/04 05:42:39;;;;;;;;;;;;;;;10.61;100.00;101537.00;5063482;28;19925;-79
2022/06/04 05:45:12;;;;;;;;;;;;;;;10.75;100.00;101534.66;5076622;28;19924;-79
2022/06/04 05:47:46;;;;;;;;;;;;;;;10.79;100.00;101533.88;5066621;28;20379;-79
2022/06/04 05:50:14;;;;;;;;;;;;;;;10.84;100.00;101533.09;5063093;28;19936;-78
2022/06/04 05:52:42;;;;;;;;;;;;;;;10.96;100.00;101535.63;5079132;28;20380;-79
2022/06/04 05:55:10;;;;;;;;;;;;;;;11.08;100.00;101539.00;5075184;28;19928;-80
2022/06/04 05:57:43;;;;;;;;;;;;;;;11.12;100.00;101551.00;5076103;28;19943;-80
2022/06/04 06:00:12;;;;;;;;;;;;;;;10.89;100.00;101549.47;5072697;28;19932;-80
2022/06/04 06:02:40;;;;;;;;;;;;;;;10.92;100.00;101550.84;5076116;28;19929;-81
2022/06/04 06:05:09;;;;;;;;;;;;;;;10.98;100.00;101553.34;5071506;28;19931;-79
2022/06/04 06:07:42;;;;;;;;;;;;;;;11.03;100.00;101547.13;5067366;28;20364;-78
2022/06/04 06:10:15;;;;;;;;;;;;;;;11.18;100.00;101551.84;5072016;28;19925;-79
2022/06/04 06:12:43;;;;;;;;;;;;;;;11.22;100.00;101558.41;5075602;28;20293;-78
2022/06/04 06:15:17;;;;;;;;;;;;;;;11.37;100.00;101563.97;5084116;28;19948;-79
2022/06/04 06:17:44;;;;;;;;;;;;;;;11.51;100.00;101558.84;5075659;28;20268;-79
2022/06/04 06:20:19;;;;;;;;;;;;;;;11.57;100.00;101555.09;5069641;28;19924;-79
2022/06/04 06:22:52;;;;;;;;;;;;;;;11.73;100.00;101555.16;5070629;28;19925;-80
2022/06/04 06:25:20;;;;;;;;;;;;;;;11.89;100.00;101561.47;5076200;28;19932;-79
2022/06/04 06:27:53;;;;;;;;;;;;;;;11.96;100.00;101555.81;5066829;28;19931;-79
2022/06/04 06:30:21;;;;;;;;;;;;;;;11.89;100.00;101561.47;5076070;28;19925;-80
2022/06/04 06:32:54;;;;;;;;;;;;;;;11.95;100.00;101570.56;5085231;28;19928;-79
2022/06/04 06:35:28;;;;;;;;;;;;;;;12.12;100.00;101565.69;5073522;28;20196;-79
2022/06/04 06:38:01;;;;;;;;;;;;;;;12.32;100.00;101564.09;5073553;28;19924;-79
2022/06/04 06:40:35;;;;;;;;;;;;;;;12.25;100.00;101557.00;5085367;28;19924;-79
2022/06/04 06:43:08;;;;;;;;;;;;;;;12.24;100.00;101569.00;5073148;28;19929;-79
2022/06/04 06:45:42;;;;;;;;;;;;;;;12.12;100.00;101570.34;5069055;28;19924;-79
2022/06/04 06:48:15;;;;;;;;;;;;;;;12.12;100.00;101567.59;5071854;28;19929;-81
2022/06/04 06:50:49;;;;;;;;;;;;;;;11.98;100.00;101578.19;5066876;28;19928;-79
2022/06/04 06:53:22;;;;;;;;;;;;;;;11.81;100.00;101571.00;5076290;28;19931;-78
2022/06/04 06:55:51;;;;;;;;;;;;;;;11.91;100.00;101576.50;5077697;28;19924;-79
2022/06/04 06:58:24;;;;;;;;;;;;;;;11.98;100.00;101580.94;5071251;28;19932;-80
2022/06/04 07:00:56;;;;;;;;;;;;;;;12.18;100.00;101580.16;5074937;28;20289;-81
2022/06/04 07:03:24;;;;;;;;;;;;;;;12.21;100.00;101583.19;5066355;28;19925;-80
2022/06/04 07:05:59;;;;;;;;;;;;;;;12.08;100.00;101589.13;5075102;28;19931;-79
2022/06/04 07:08:32;;;;;;;;;;;;;;;12.21;100.00;101590.56;5071621;28;19924;-80
2022/06/04 07:11:00;;;;;;;;;;;;;;;12.19;100.00;101596.28;5070903;28;19936;-79
2022/06/04 07:13:33;;;;;;;;;;;;;;;12.35;100.00;101599.88;5076467;28;19931;-79
2022/06/04 07:16:01;;;;;;;;;;;;;;;12.35;100.00;101594.41;5072809;28;19932;-78
2022/06/04 07:18:34;;;;;;;;;;;;;;;12.56;100.00;101597.19;5068779;28;19939;-78
2022/06/04 07:21:08;;;;;;;;;;;;;;;12.61;100.00;101599.91;5073860;28;19925;-79
2022/06/04 07:23:42;;;;;;;;;;;;;;;12.90;100.00;101599.41;5077954;28;19925;-76
2022/06/04 07:26:15;;;;;;;;;;;;;;;13.26;100.00;101596.66;5069904;28;19924;-80
2022/06/04 07:28:48;;;;;;;;;;;;;;;13.13;100.00;101608.94;5075636;28;19925;-79
2022/06/04 07:31:16;;;;;;;;;;;;;;;12.99;100.00;101616.06;5067040;28;19947;-82
2022/06/04 07:33:45;;;;;;;;;;;;;;;12.82;100.00;101614.41;5072576;28;20412;-80
2022/06/04 07:36:20;;;;;;;;;;;;;;;12.59;100.00;101611.13;5070208;28;19935;-83
2022/06/04 07:38:53;;;;;;;;;;;;;;;12.81;100.00;101620.16;5067059;28;19925;-81
2022/06/04 07:41:22;;;;;;;;;;;;;;;12.74;100.00;101618.50;5066362;28;19932;-80
2022/06/04 07:43:51;;;;;;;;;;;;;;;12.78;100.00;101628.91;5071612;28;19928;-81
2022/06/04 07:46:19;;;;;;;;;;;;;;;12.88;100.00;101632.44;5071319;28;20269;-79
2022/06/04 07:48:47;;;;;;;;;;;;;;;12.95;100.00;101631.34;5071917;28;20406;-80
2022/06/04 07:51:16;;;;;;;;;;;;;;;12.89;100.00;101641.47;5078931;28;19924;-81
2022/06/04 07:53:51;;;;;;;;;;;;;;;12.93;100.00;101635.19;5071166;28;19947;-82
2022/06/04 07:56:23;;;;;;;;;;;;;;;13.05;100.00;101640.38;5073298;28;19925;-80
2022/06/04 07:58:52;;;;;;;;;;;;;;;12.99;100.00;101640.66;5070429;28;19925;-79
2022/06/04 08:01:25;;;;;;;;;;;;;;;13.03;100.00;101633.56;5074217;28;19932;-79
2022/06/04 08:03:58;;;;;;;;;;;;;;;13.12;100.00;101634.66;5071908;28;19925;-80
2022/06/04 08:06:33;;;;;;;;;;;;;;;13.31;100.00;101632.16;5072972;28;20046;-80
2022/06/04 08:09:07;;;;;;;;;;;;;;;13.39;100.00;101628.09;5070564;28;19948;-80
2022/06/04 08:11:40;;;;;;;;;;;;;;;13.74;100.00;101626.38;5061433;28;20290;-81
2022/06/04 08:14:16;;;;;;;;;;;;;;;13.98;100.00;101632.03;5070845;28;19924;-81
2022/06/04 08:16:51;;;;;;;;;;;;;;;14.32;100.00;101641.47;5075599;28;20300;-81
2022/06/04 08:19:25;;;;;;;;;;;;;;;14.16;100.00;101646.22;5074834;28;20377;-79
2022/06/04 08:21:53;;;;;;;;;;;;;;;14.20;100.00;101639.88;5076898;28;19935;-79
2022/06/04 08:24:23;;;;;;;;;;;;;;;14.38;100.00;101634.88;5073702;28;20316;-81
2022/06/04 08:26:53;;;;;;;;;;;;;;;14.92;100.00;101634.00;5072108;28;19928;-79
2022/06/04 08:29:27;;;;;;;;;;;;;;;14.89;100.00;101642.00;5067184;28;19924;-81
2022/06/04 08:32:00;;;;;;;;;;;;;;;14.20;100.00;101639.88;5066373;28;19929;-80
2022/06/04 08:34:34;;;;;;;;;;;;;;;14.20;100.00;101636.34;5073129;28;19932;-80
2022/06/04 08:37:07;;;;;;;;;;;;;;;14.16;100.00;101646.22;5070001;28;19925;-80
2022/06/04 08:39:41;;;;;;;;;;;;;;;14.35;100.00;101639.00;5071614;28;19943;-80
2022/06/04 08:42:20;;;;;;;;;;;;;;;14.42;100.00;101638.69;5081960;28;19959;-79
2022/06/04 08:44:54;;;;;;;;;;;;;;;14.73;100.00;101636.59;5079969;28;19931;-80
2022/06/04 08:47:25;;;;;;;;;;;;;;;15.05;100.00;101640.78;5075483;28;19947;-80
2022/06/04 08:50:01;;;;;;;;;;;;;;;15.00;100.00;101638.06;5080258;28;19928;-80
2022/06/04 08:52:30;;;;;;;;;;;;;;;14.86;100.00;101637.06;5073797;28;19929;-80
2022/06/04 08:57:50;;;;;;;;;;;;;;;15.12;100.00;101634.94;5065320;28;19965;-81
2022/06/04 09:00:20;;;;;;;;;;;;;;;14.92;100.00;101644.97;5078036;28;19951;-80
2022/06/04 09:03:06;;;;;;;;;;;;;;;15.03;100.00;101642.16;5071554;28;20392;-80
2022/06/04 09:05:51;;;;;;;;;;;;;;;15.00;100.00;101650.94;5073900;28;19928;-79
2022/06/04 09:08:21;;;;;;;;;;;;;;;15.18;100.00;101639.28;5078688;28;20297;-81
2022/06/04 09:10:57;;;;;;;;;;;;;;;15.56;100.00;101641.41;5077425;28;19924;-80
2022/06/04 09:13:29;;;;;;;;;;;;;;;15.34;100.00;101645.44;5077517;28;20304;-79
2022/06/04 09:15:58;;;;;;;;;;;;;;;15.36;100.00;101645.16;5075127;28;19931;-80
2022/06/04 09:18:33;;;;;;;;;;;;;;;15.43;100.00;101645.66;5082301;28;19928;-80
2022/06/04 09:21:10;;;;;;;;;;;;;;;15.81;100.00;101643.91;5081164;28;19925;-79
2022/06/04 09:23:46;;;;;;;;;;;;;;;16.11;100.00;101647.38;5078135;28;19924;-82
2022/06/04 09:26:24;;;;;;;;;;;;;;;16.13;100.00;101638.88;5072223;28;19932;-81
2022/06/04 09:28:57;;;;;;;;;;;;;;;16.21;100.00;101637.38;5067832;28;19929;-81
2022/06/04 09:31:27;;;;;;;;;;;;;;;16.25;100.00;101636.50;5071988;28;19929;-80
2022/06/04 09:34:02;;;;;;;;;;;;;;;16.27;100.00;101620.53;5081386;28;19928;-81
2022/06/04 09:36:37;;;;;;;;;;;;;;;16.40;100.00;101627.22;5069742;28;19928;-80
2022/06/04 09:39:19;;;;;;;;;;;;;;;16.11;100.00;101636.41;5080915;28;19937;-82
2022/06/04 09:41:55;;;;;;;;;;;;;;;16.06;100.00;101638.38;5075987;28;19932;-82
2022/06/04 09:44:24;;;;;;;;;;;;;;;16.11;100.00;101636.41;5070091;28;20368;-82
2022/06/04 09:46:58;;;;;;;;;;;;;;;15.93;100.00;101631.69;5066065;28;20385;-89
2022/06/04 09:49:35;;;;;;;;;;;;;;;16.00;100.00;101636.84;5069187;28;19928;-82
2022/06/04 09:52:14;;;;;;;;;;;;;;;15.92;100.00;101635.53;5066579;28;20404;-84
2022/06/04 09:54:52;;;;;;;;;;;;;;;16.23;100.00;101643.41;5070409;28;19928;-84
2022/06/04 09:57:29;;;;;;;;;;;;;;;16.42;100.00;101635.16;5067063;28;20575;-86
2022/06/04 09:59:58;;;;;;;;;;;;;;;16.73;100.00;101630.06;5067680;28;19928;-85
2022/06/04 10:02:32;;;;;;;;;;;;;;;16.57;100.00;101642.38;5074471;28;19928;-78
2022/06/04 10:05:04;;;;;;;;;;;;;;;16.57;100.00;101637.72;5062363;28;19932;-84
2022/06/04 10:07:39;;;;;;;;;;;;;;;16.64;100.00;101635.41;5068995;28;19931;-84
2022/06/04 10:10:19;;;;;;;;;;;;;;;16.89;100.00;101638.91;5056472;28;19947;-81
2022/06/04 10:15:41;;;;;;;;;;;;;;;16.70;100.00;101644.41;5046627;28;19941;-84
2022/06/04 10:18:18;;;;;;;;;;;;;;;16.84;100.00;101648.00;5035850;28;19932;-81
2022/06/04 10:20:57;;;;;;;;;;;;;;;16.82;100.00;101644.75;5034774;28;19939;-84
2022/06/04 10:23:25;;;;;;;;;;;;;;;16.62;100.00;101651.38;5036831;28;19932;-83
2022/06/04 10:26:13;;;;;;;;;;;;;;;17.02;100.00;101647.53;5061224;28;19932;-82
2022/06/04 10:28:49;;;;;;;;;;;;;;;17.20;100.00;101651.34;5033812;28;19940;-80
2022/06/04 10:31:29;;;;;;;;;;;;;;;17.23;100.00;101650.75;5038675;28;19939;-81
2022/06/04 10:34:02;;;;;;;;;;;;;;;17.12;100.00;101650.94;5044209;28;19939;-78
2022/06/04 10:36:42;;;;;;;;;;;;;;;16.83;100.00;101640.91;5042275;28;19952;-80
2022/06/04 10:39:17;;;;;;;;;;;;;;;17.04;100.00;101637.03;5037457;28;19932;-82
2022/06/04 10:41:53;;;;;;;;;;;;;;;17.08;100.00;101635.31;5033863;28;19933;-80
2022/06/04 10:44:34;;;;;;;;;;;;;;;16.93;100.00;101628.13;5039739;28;19932;-81
2022/06/04 10:47:11;;;;;;;;;;;;;;;17.22;100.00;101629.84;5042595;28;19940;-82
2022/06/04 10:49:53;;;;;;;;;;;;;;;17.38;100.00;101625.69;5069354;28;19929;-82
2022/06/04 10:52:28;;;;;;;;;;;;;;;17.45;100.00;101631.63;5070339;28;20377;-80
2022/06/04 10:55:05;;;;;;;;;;;;;;;17.43;100.00;101624.81;5071101;28;20587;-80
2022/06/04 10:57:37;;;;;;;;;;;;;;;17.46;100.00;101636.00;5075923;28;20284;-80
2022/06/04 11:00:12;;;;;;;;;;;;;;;17.58;100.00;101621.78;5066662;28;19925;-81
2022/06/04 11:02:49;;;;;;;;;;;;;;;17.66;100.00;101621.06;5065779;28;19924;-83
2022/06/04 11:05:25;;;;;;;;;;;;;;;17.79;100.00;101621.38;5069156;28;19936;-79
2022/06/04 11:08:02;;;;;;;;;;;;;;;18.11;100.00;101630.66;5078172;28;19928;-80
2022/06/04 11:10:38;;;;;;;;;;;;;;;18.02;100.00;101630.56;5063740;28;19932;-80
2022/06/04 11:13:13;;;;;;;;;;;;;;;18.05;100.00;101618.09;5067345;28;19925;-82
2022/06/04 11:15:45;;;;;;;;;;;;;;;17.87;100.00;101630.84;5066272;28;20415;-81
2022/06/04 11:18:21;;;;;;;;;;;;;;;17.53;98.74;101641.13;5071023;28;19928;-80
2022/06/04 11:20:51;;;;;;;;;;;;;;;17.84;100.00;101626.75;5064254;28;19925;-80
2022/06/04 11:23:27;;;;;;;;;;;;;;;17.87;100.00;101626.16;5070226;28;19925;-80
2022/06/04 11:26:03;;;;;;;;;;;;;;;17.96;100.00;101626.28;5066578;28;19939;-80
2022/06/04 11:28:37;;;;;;;;;;;;;;;18.25;90.01;101628.69;5071522;28;19928;-80
2022/06/04 11:31:16;;;;;;;;;;;;;;;18.40;96.70;101630.31;5071271;28;19948;-81
2022/06/04 11:33:58;;;;;;;;;;;;;;;17.96;87.49;101612.53;5066852;28;20622;-81
2022/06/04 11:36:29;;;;;;;;;;;;;;;18.56;100.00;101613.41;5066713;28;19939;-80
2022/06/04 11:39:02;;;;;;;;;;;;;;;18.63;93.58;101617.38;5068892;28;19932;-81
2022/06/04 11:41:38;;;;;;;;;;;;;;;18.72;96.07;101622.94;5063497;28;20379;-80
2022/06/04 11:44:29;;;;;;;;;;;;;;;18.50;100.00;101612.72;5060263;28;19928;-79
2022/06/04 11:47:03;;;;;;;;;;;;;;;18.53;100.00;101612.91;5071971;28;20285;-80
2022/06/04 11:49:35;;;;;;;;;;;;;;;18.82;100.00;101608.09;5082646;28;20395;-80
2022/06/04 11:52:18;;;;;;;;;;;;;;;19.22;100.00;101608.22;5067598;28;20391;-79
2022/06/04 11:54:57;;;;;;;;;;;;;;;19.38;100.00;101616.94;5071663;28;19935;-81
2022/06/04 11:57:27;;;;;;;;;;;;;;;19.33;77.96;101617.06;5075667;28;20403;-79
2022/06/04 12:00:06;;;;;;;;;;;;;;;19.03;95.02;101620.28;5069704;28;20420;-80
2022/06/04 12:02:46;;;;;;;;;;;;;;;19.07;99.59;101620.50;5073436;28;19924;-79
2022/06/04 12:05:32;;;;;;;;;;;;;;;18.80;77.15;101621.41;5067682;28;20307;-80
2022/06/04 12:08:07;;;;;;;;;;;;;;;19.15;100.00;101613.38;5065602;28;20478;-79
2022/06/04 12:10:46;;;;;;;;;;;;;;;19.11;72.97;101617.91;5077384;28;19924;-83
2022/06/04 12:13:23;;;;;;;;;;;;;;;18.78;73.70;101620.88;5075326;28;19931;-81
2022/06/04 12:15:53;;;;;;;;;;;;;;;19.16;93.03;101613.06;5076176;28;20625;-80
2022/06/04 12:18:27;;;;;;;;;;;;;;;19.13;84.81;101613.69;5069531;28;19935;-82
2022/06/04 12:24:16;;;;;;;;;;;;;;;18.96;66.59;101619.09;5044039;28;20313;-83
2022/06/04 12:26:50;;;;;;;;;;;;;;;18.91;76.41;101611.78;5074577;28;19924;-80
2022/06/04 12:29:32;;;;;;;;;;;;;;;18.78;77.49;101609.84;5078634;28;19925;-81
2022/06/04 12:32:18;;;;;;;;;;;;;;;18.90;68.21;101601.06;5071874;28;19931;-81
2022/06/04 12:34:48;;;;;;;;;;;;;;;19.20;85.24;101604.97;5072300;28;19928;-82
2022/06/04 12:37:23;;;;;;;;;;;;;;;19.14;75.14;101604.31;5070769;28;19939;-84
2022/06/04 12:39:51;;;;;;;;;;;;;;;19.58;88.11;101603.69;5065388;28;20396;-82
2022/06/04 12:42:22;;;;;;;;;;;;;;;19.26;74.89;101605.66;5069165;28;20296;-80
2022/06/04 12:44:56;;;;;;;;;;;;;;;19.30;77.84;101601.94;5069453;28;20258;-79
2022/06/04 12:47:26;;;;;;;;;;;;;;;19.46;84.39;101601.50;5062252;28;20285;-82
2022/06/04 12:49:58;;;;;;;;;;;;;;;19.43;77.86;101603.00;5070451;28;20336;-79
2022/06/04 12:52:37;;;;;;;;;;;;;;;19.67;91.16;101605.34;5070543;28;19924;-80
2022/06/04 12:55:12;;;;;;;;;;;;;;;19.48;83.24;101602.03;5063900;28;19939;-80
2022/06/04 12:57:46;;;;;;;;;;;;;;;19.26;83.29;101609.22;5063294;28;19932;-80
2022/06/04 13:00:23;;;;;;;;;;;;;;;18.91;71.22;101602.69;5079658;28;19928;-88
2022/06/04 13:03:11;;;;;;;;;;;;;;;19.25;74.43;101604.03;5071095;28;19925;-87
2022/06/04 13:06:11;;;;;;;;;;;;;;;19.20;74.60;101602.22;5031923;28;19941;-80
2022/06/04 13:08:52;;;;;;;;;;;;;;;18.99;77.37;101604.69;5013838;28;20426;-82
2022/06/04 13:11:27;;;;;;;;;;;;;;;19.23;77.18;101601.59;5083397;28;20380;-81
2022/06/04 13:14:04;;;;;;;;;;;;;;;19.53;82.33;101601.91;5050024;28;19932;-79
2022/06/04 13:16:47;;;;;;;;;;;;;;;19.85;100.00;101597.97;5046483;28;19932;-80
2022/06/04 13:19:31;;;;;;;;;;;;;;;19.91;76.07;101595.06;5037114;28;20335;-79
2022/06/04 13:22:06;;;;;;;;;;;;;;;19.69;76.26;101605.03;5039280;28;19940;-82